sensor_id;sensor_type;location;lat;lon;timestamp;P1;durP1;ratioP1;P2;durP2;ratioP2
74749;SDS011;63269;53.330;-6.288;2023-03-01T00:01:08;3.75;;;2.33;;
74749;SDS011;63269;53.330;-6.288;2023-03-01T00:03:35;5.13;;;2.15;;
74749;SDS011;63269;53.330;-6.288;2023-03-01T00:06:01;4.70;;;2.20;;
74749;SDS011;63269;53.330;-6.288;2023-03-01T00:08:30;5.78;;;2.10;;
74749;SDS011;63269;53.330;-6.288;2023-03-01T00:13:33;4.53;;;1.95;;
74749;SDS011;63269;53.330;-6.288;2023-03-01T00:16:01;4.38;;;1.98;;
74749;SDS011;63269;53.330;-6.288;2023-03-01T00:18:28;3.30;;;1.90;;
74749;SDS011;63269;53.330;-6.288;2023-03-01T00:20:54;2.92;;;1.95;;
74749;SDS011;63269;53.330;-6.288;2023-03-01T00:23:20;3.72;;;1.80;;
74749;SDS011;63269;53.330;-6.288;2023-03-01T00:25:46;4.28;;;2.05;;
74749;SDS011;63269;53.330;-6.288;2023-03-01T00:28:12;3.78;;;2.10;;
74749;SDS011;63269;53.330;-6.288;2023-03-01T00:30:37;3.20;;;1.70;;
74749;SDS011;63269;53.330;-6.288;2023-03-01T00:33:03;3.50;;;1.63;;
74749;SDS011;63269;53.330;-6.288;2023-03-01T00:35:28;3.65;;;1.70;;
74749;SDS011;63269;53.330;-6.288;2023-03-01T00:37:54;3.63;;;1.75;;
74749;SDS011;63269;53.330;-6.288;2023-03-01T00:40:26;4.07;;;2.05;;
74749;SDS011;63269;53.330;-6.288;2023-03-01T00:42:53;3.13;;;1.80;;
74749;SDS011;63269;53.330;-6.288;2023-03-01T00:45:18;2.00;;;1.38;;
74749;SDS011;63269;53.330;-6.288;2023-03-01T00:47:44;2.83;;;1.70;;
74749;SDS011;63269;53.330;-6.288;2023-03-01T00:50:10;2.58;;;1.42;;
74749;SDS011;63269;53.330;-6.288;2023-03-01T00:52:36;2.85;;;1.50;;
74749;SDS011;63269;53.330;-6.288;2023-03-01T00:55:01;4.13;;;1.48;;
74749;SDS011;63269;53.330;-6.288;2023-03-01T00:57:27;2.38;;;1.20;;
74749;SDS011;63269;53.330;-6.288;2023-03-01T00:59:52;3.05;;;1.58;;
74749;SDS011;63269;53.330;-6.288;2023-03-01T01:02:18;5.70;;;1.52;;
74749;SDS011;63269;53.330;-6.288;2023-03-01T01:04:45;2.78;;;1.35;;
74749;SDS011;63269;53.330;-6.288;2023-03-01T01:07:11;2.88;;;1.25;;
74749;SDS011;63269;53.330;-6.288;2023-03-01T01:09:36;2.47;;;1.27;;
74749;SDS011;63269;53.330;-6.288;2023-03-01T01:12:02;4.20;;;1.17;;
74749;SDS011;63269;53.330;-6.288;2023-03-01T01:14:27;4.15;;;1.30;;
74749;SDS011;63269;53.330;-6.288;2023-03-01T01:16:53;2.30;;;1.20;;
74749;SDS011;63269;53.330;-6.288;2023-03-01T01:19:19;2.33;;;0.82;;
74749;SDS011;63269;53.330;-6.288;2023-03-01T01:21:45;1.30;;;0.57;;
74749;SDS011;63269;53.330;-6.288;2023-03-01T01:24:10;2.80;;;1.27;;
74749;SDS011;63269;53.330;-6.288;2023-03-01T01:26:36;3.42;;;0.95;;
74749;SDS011;63269;53.330;-6.288;2023-03-01T01:29:03;6.25;;;1.00;;
74749;SDS011;63269;53.330;-6.288;2023-03-01T01:31:30;2.90;;;1.13;;
74749;SDS011;63269;53.330;-6.288;2023-03-01T01:33:56;2.80;;;0.98;;
74749;SDS011;63269;53.330;-6.288;2023-03-01T01:36:24;1.92;;;0.80;;
74749;SDS011;63269;53.330;-6.288;2023-03-01T01:38:50;1.55;;;0.70;;
74749;SDS011;63269;53.330;-6.288;2023-03-01T01:41:16;1.55;;;0.90;;
74749;SDS011;63269;53.330;-6.288;2023-03-01T01:43:43;1.92;;;0.90;;
74749;SDS011;63269;53.330;-6.288;2023-03-01T01:46:28;3.47;;;1.05;;
74749;SDS011;63269;53.330;-6.288;2023-03-01T01:49:00;1.27;;;0.70;;
74749;SDS011;63269;53.330;-6.288;2023-03-01T01:51:33;1.90;;;0.85;;
74749;SDS011;63269;53.330;-6.288;2023-03-01T01:54:16;2.63;;;0.95;;
74749;SDS011;63269;53.330;-6.288;2023-03-01T01:56:48;2.83;;;0.93;;
74749;SDS011;63269;53.330;-6.288;2023-03-01T01:59:19;2.05;;;0.70;;
74749;SDS011;63269;53.330;-6.288;2023-03-01T02:01:49;1.95;;;0.82;;
74749;SDS011;63269;53.330;-6.288;2023-03-01T02:04:16;1.63;;;0.60;;
74749;SDS011;63269;53.330;-6.288;2023-03-01T02:06:45;1.67;;;0.55;;
74749;SDS011;63269;53.330;-6.288;2023-03-01T02:09:16;2.80;;;0.73;;
74749;SDS011;63269;53.330;-6.288;2023-03-01T02:11:45;1.73;;;0.60;;
74749;SDS011;63269;53.330;-6.288;2023-03-01T02:14:12;1.55;;;0.50;;
74749;SDS011;63269;53.330;-6.288;2023-03-01T02:16:37;1.73;;;0.60;;
74749;SDS011;63269;53.330;-6.288;2023-03-01T02:19:03;2.10;;;0.80;;
74749;SDS011;63269;53.330;-6.288;2023-03-01T02:21:36;1.27;;;0.63;;
74749;SDS011;63269;53.330;-6.288;2023-03-01T02:24:06;2.70;;;0.93;;
74749;SDS011;63269;53.330;-6.288;2023-03-01T02:26:48;1.85;;;0.55;;
74749;SDS011;63269;53.330;-6.288;2023-03-01T02:29:17;1.00;;;0.50;;
74749;SDS011;63269;53.330;-6.288;2023-03-01T02:31:42;1.08;;;0.40;;
74749;SDS011;63269;53.330;-6.288;2023-03-01T02:34:15;2.30;;;0.55;;
74749;SDS011;63269;53.330;-6.288;2023-03-01T02:36:53;1.77;;;0.50;;
74749;SDS011;63269;53.330;-6.288;2023-03-01T02:39:23;2.67;;;0.70;;
74749;SDS011;63269;53.330;-6.288;2023-03-01T02:41:53;1.05;;;0.50;;
74749;SDS011;63269;53.330;-6.288;2023-03-01T02:44:21;1.20;;;0.50;;
74749;SDS011;63269;53.330;-6.288;2023-03-01T02:46:50;1.80;;;0.47;;
74749;SDS011;63269;53.330;-6.288;2023-03-01T02:49:29;2.17;;;0.38;;
74749;SDS011;63269;53.330;-6.288;2023-03-01T02:57:09;1.45;;;0.30;;
74749;SDS011;63269;53.330;-6.288;2023-03-01T02:59:35;1.73;;;0.50;;
74749;SDS011;63269;53.330;-6.288;2023-03-01T03:02:08;1.60;;;0.38;;
74749;SDS011;63269;53.330;-6.288;2023-03-01T03:04:46;1.23;;;0.57;;
74749;SDS011;63269;53.330;-6.288;2023-03-01T03:07:11;0.88;;;0.47;;
74749;SDS011;63269;53.330;-6.288;2023-03-01T03:09:37;1.48;;;0.40;;
74749;SDS011;63269;53.330;-6.288;2023-03-01T03:12:02;0.95;;;0.30;;
74749;SDS011;63269;53.330;-6.288;2023-03-01T03:14:28;1.65;;;0.40;;
74749;SDS011;63269;53.330;-6.288;2023-03-01T03:16:53;0.60;;;0.30;;
74749;SDS011;63269;53.330;-6.288;2023-03-01T03:19:19;2.05;;;0.55;;
74749;SDS011;63269;53.330;-6.288;2023-03-01T03:21:45;1.48;;;0.40;;
74749;SDS011;63269;53.330;-6.288;2023-03-01T03:24:10;1.63;;;0.50;;
74749;SDS011;63269;53.330;-6.288;2023-03-01T03:26:36;1.88;;;0.45;;
74749;SDS011;63269;53.330;-6.288;2023-03-01T03:29:02;0.63;;;0.28;;
74749;SDS011;63269;53.330;-6.288;2023-03-01T03:31:27;1.48;;;0.50;;
74749;SDS011;63269;53.330;-6.288;2023-03-01T03:33:53;1.35;;;0.50;;
74749;SDS011;63269;53.330;-6.288;2023-03-01T03:36:20;1.15;;;0.30;;
74749;SDS011;63269;53.330;-6.288;2023-03-01T03:38:47;0.77;;;0.40;;
74749;SDS011;63269;53.330;-6.288;2023-03-01T03:41:14;0.85;;;0.30;;
74749;SDS011;63269;53.330;-6.288;2023-03-01T03:43:40;1.88;;;0.50;;
74749;SDS011;63269;53.330;-6.288;2023-03-01T03:46:08;2.35;;;0.45;;
74749;SDS011;63269;53.330;-6.288;2023-03-01T03:48:41;1.30;;;0.40;;
74749;SDS011;63269;53.330;-6.288;2023-03-01T03:51:12;0.80;;;0.30;;
74749;SDS011;63269;53.330;-6.288;2023-03-01T03:53:39;0.80;;;0.43;;
74749;SDS011;63269;53.330;-6.288;2023-03-01T03:56:05;1.45;;;0.50;;
74749;SDS011;63269;53.330;-6.288;2023-03-01T03:58:31;1.52;;;0.30;;
74749;SDS011;63269;53.330;-6.288;2023-03-01T04:00:57;0.63;;;0.20;;
74749;SDS011;63269;53.330;-6.288;2023-03-01T04:03:23;1.02;;;0.50;;
74749;SDS011;63269;53.330;-6.288;2023-03-01T04:05:50;1.35;;;0.50;;
74749;SDS011;63269;53.330;-6.288;2023-03-01T04:08:16;1.20;;;0.47;;
74749;SDS011;63269;53.330;-6.288;2023-03-01T04:10:46;0.70;;;0.40;;
74749;SDS011;63269;53.330;-6.288;2023-03-01T04:13:14;2.00;;;0.82;;
74749;SDS011;63269;53.330;-6.288;2023-03-01T04:15:44;1.55;;;0.25;;
74749;SDS011;63269;53.330;-6.288;2023-03-01T04:18:13;1.02;;;0.30;;
74749;SDS011;63269;53.330;-6.288;2023-03-01T04:20:40;2.15;;;0.43;;
74749;SDS011;63269;53.330;-6.288;2023-03-01T04:23:07;1.80;;;0.40;;
74749;SDS011;63269;53.330;-6.288;2023-03-01T04:25:48;1.83;;;0.40;;
74749;SDS011;63269;53.330;-6.288;2023-03-01T04:28:26;0.95;;;0.35;;
74749;SDS011;63269;53.330;-6.288;2023-03-01T04:31:01;2.88;;;0.80;;
74749;SDS011;63269;53.330;-6.288;2023-03-01T04:33:38;2.20;;;0.30;;
74749;SDS011;63269;53.330;-6.288;2023-03-01T04:36:05;1.35;;;0.30;;
74749;SDS011;63269;53.330;-6.288;2023-03-01T04:38:33;1.23;;;0.40;;
74749;SDS011;63269;53.330;-6.288;2023-03-01T04:41:00;1.27;;;0.40;;
74749;SDS011;63269;53.330;-6.288;2023-03-01T04:43:25;0.82;;;0.38;;
74749;SDS011;63269;53.330;-6.288;2023-03-01T04:45:50;1.02;;;0.30;;
74749;SDS011;63269;53.330;-6.288;2023-03-01T04:48:16;1.15;;;0.40;;
74749;SDS011;63269;53.330;-6.288;2023-03-01T04:50:41;2.17;;;0.30;;
74749;SDS011;63269;53.330;-6.288;2023-03-01T04:53:06;0.82;;;0.30;;
74749;SDS011;63269;53.330;-6.288;2023-03-01T04:55:33;1.98;;;0.50;;
74749;SDS011;63269;53.330;-6.288;2023-03-01T04:57:58;2.47;;;0.60;;
74749;SDS011;63269;53.330;-6.288;2023-03-01T05:00:24;0.55;;;0.28;;
74749;SDS011;63269;53.330;-6.288;2023-03-01T05:02:53;1.70;;;0.30;;
74749;SDS011;63269;53.330;-6.288;2023-03-01T05:05:34;3.92;;;0.93;;
74749;SDS011;63269;53.330;-6.288;2023-03-01T05:08:05;2.20;;;0.30;;
74749;SDS011;63269;53.330;-6.288;2023-03-01T05:10:33;1.35;;;0.40;;
74749;SDS011;63269;53.330;-6.288;2023-03-01T05:13:00;0.60;;;0.30;;
74749;SDS011;63269;53.330;-6.288;2023-03-01T05:15:28;2.05;;;0.30;;
74749;SDS011;63269;53.330;-6.288;2023-03-01T05:17:55;1.35;;;0.35;;
74749;SDS011;63269;53.330;-6.288;2023-03-01T05:20:23;2.15;;;0.30;;
74749;SDS011;63269;53.330;-6.288;2023-03-01T05:22:53;2.78;;;0.50;;
74749;SDS011;63269;53.330;-6.288;2023-03-01T05:25:21;1.13;;;0.30;;
74749;SDS011;63269;53.330;-6.288;2023-03-01T05:27:47;0.77;;;0.20;;
74749;SDS011;63269;53.330;-6.288;2023-03-01T05:30:13;1.00;;;0.20;;
74749;SDS011;63269;53.330;-6.288;2023-03-01T05:32:42;1.80;;;0.45;;
74749;SDS011;63269;53.330;-6.288;2023-03-01T05:35:12;1.35;;;0.40;;
74749;SDS011;63269;53.330;-6.288;2023-03-01T05:37:43;0.80;;;0.47;;
74749;SDS011;63269;53.330;-6.288;2023-03-01T05:40:13;2.05;;;0.57;;
74749;SDS011;63269;53.330;-6.288;2023-03-01T05:42:48;2.08;;;0.30;;
74749;SDS011;63269;53.330;-6.288;2023-03-01T05:45:15;0.63;;;0.20;;
74749;SDS011;63269;53.330;-6.288;2023-03-01T05:47:42;2.88;;;0.40;;
74749;SDS011;63269;53.330;-6.288;2023-03-01T05:50:19;2.53;;;0.50;;
74749;SDS011;63269;53.330;-6.288;2023-03-01T05:52:50;0.70;;;0.30;;
74749;SDS011;63269;53.330;-6.288;2023-03-01T05:55:17;1.35;;;0.38;;
74749;SDS011;63269;53.330;-6.288;2023-03-01T05:57:44;1.35;;;0.38;;
74749;SDS011;63269;53.330;-6.288;2023-03-01T06:00:11;0.95;;;0.30;;
74749;SDS011;63269;53.330;-6.288;2023-03-01T06:02:37;1.77;;;0.30;;
74749;SDS011;63269;53.330;-6.288;2023-03-01T06:05:04;1.15;;;0.32;;
74749;SDS011;63269;53.330;-6.288;2023-03-01T06:07:31;2.42;;;0.40;;
74749;SDS011;63269;53.330;-6.288;2023-03-01T06:09:56;1.42;;;0.32;;
74749;SDS011;63269;53.330;-6.288;2023-03-01T06:12:22;1.75;;;0.45;;
74749;SDS011;63269;53.330;-6.288;2023-03-01T06:14:47;0.80;;;0.30;;
74749;SDS011;63269;53.330;-6.288;2023-03-01T06:17:13;1.65;;;0.30;;
74749;SDS011;63269;53.330;-6.288;2023-03-01T06:19:38;1.77;;;0.40;;
74749;SDS011;63269;53.330;-6.288;2023-03-01T06:22:04;1.08;;;0.38;;
74749;SDS011;63269;53.330;-6.288;2023-03-01T06:24:29;1.10;;;0.40;;
74749;SDS011;63269;53.330;-6.288;2023-03-01T06:26:55;1.48;;;0.30;;
74749;SDS011;63269;53.330;-6.288;2023-03-01T06:29:20;1.30;;;0.30;;
74749;SDS011;63269;53.330;-6.288;2023-03-01T06:31:47;1.70;;;0.32;;
74749;SDS011;63269;53.330;-6.288;2023-03-01T06:34:13;2.30;;;0.77;;
74749;SDS011;63269;53.330;-6.288;2023-03-01T06:36:39;1.10;;;0.30;;
74749;SDS011;63269;53.330;-6.288;2023-03-01T06:39:04;1.10;;;0.50;;
74749;SDS011;63269;53.330;-6.288;2023-03-01T06:41:30;0.98;;;0.30;;
74749;SDS011;63269;53.330;-6.288;2023-03-01T06:43:56;1.50;;;0.30;;
74749;SDS011;63269;53.330;-6.288;2023-03-01T06:46:21;1.67;;;0.35;;
74749;SDS011;63269;53.330;-6.288;2023-03-01T06:48:47;1.42;;;0.30;;
74749;SDS011;63269;53.330;-6.288;2023-03-01T06:51:12;1.25;;;0.25;;
74749;SDS011;63269;53.330;-6.288;2023-03-01T06:53:38;1.88;;;0.60;;
74749;SDS011;63269;53.330;-6.288;2023-03-01T06:56:03;2.15;;;0.40;;
74749;SDS011;63269;53.330;-6.288;2023-03-01T06:58:29;1.67;;;1.02;;
74749;SDS011;63269;53.330;-6.288;2023-03-01T07:00:54;0.80;;;0.35;;
74749;SDS011;63269;53.330;-6.288;2023-03-01T07:03:20;0.52;;;0.20;;
74749;SDS011;63269;53.330;-6.288;2023-03-01T07:05:47;2.20;;;0.40;;
74749;SDS011;63269;53.330;-6.288;2023-03-01T07:08:14;3.25;;;0.80;;
74749;SDS011;63269;53.330;-6.288;2023-03-01T07:10:40;2.42;;;0.70;;
74749;SDS011;63269;53.330;-6.288;2023-03-01T07:13:05;2.63;;;0.50;;
74749;SDS011;63269;53.330;-6.288;2023-03-01T07:15:32;1.80;;;0.50;;
74749;SDS011;63269;53.330;-6.288;2023-03-01T07:17:57;1.85;;;0.40;;
74749;SDS011;63269;53.330;-6.288;2023-03-01T07:20:23;1.60;;;0.88;;
74749;SDS011;63269;53.330;-6.288;2023-03-01T07:22:50;2.25;;;0.45;;
74749;SDS011;63269;53.330;-6.288;2023-03-01T07:25:17;1.80;;;0.40;;
74749;SDS011;63269;53.330;-6.288;2023-03-01T07:27:42;1.95;;;0.50;;
74749;SDS011;63269;53.330;-6.288;2023-03-01T07:30:08;1.65;;;0.50;;
74749;SDS011;63269;53.330;-6.288;2023-03-01T07:32:34;0.73;;;0.35;;
74749;SDS011;63269;53.330;-6.288;2023-03-01T07:34:59;1.02;;;0.40;;
74749;SDS011;63269;53.330;-6.288;2023-03-01T07:37:25;1.27;;;0.50;;
74749;SDS011;63269;53.330;-6.288;2023-03-01T07:39:50;2.65;;;0.40;;
74749;SDS011;63269;53.330;-6.288;2023-03-01T07:42:15;2.33;;;0.70;;
74749;SDS011;63269;53.330;-6.288;2023-03-01T07:44:41;2.67;;;0.40;;
74749;SDS011;63269;53.330;-6.288;2023-03-01T07:47:06;1.35;;;0.50;;
74749;SDS011;63269;53.330;-6.288;2023-03-01T07:49:32;1.80;;;0.47;;
74749;SDS011;63269;53.330;-6.288;2023-03-01T07:51:57;1.73;;;0.63;;
74749;SDS011;63269;53.330;-6.288;2023-03-01T07:54:23;2.88;;;0.40;;
74749;SDS011;63269;53.330;-6.288;2023-03-01T07:56:48;0.93;;;0.30;;
74749;SDS011;63269;53.330;-6.288;2023-03-01T07:59:14;2.17;;;0.52;;
74749;SDS011;63269;53.330;-6.288;2023-03-01T08:01:39;1.20;;;0.40;;
74749;SDS011;63269;53.330;-6.288;2023-03-01T08:04:05;1.45;;;0.40;;
74749;SDS011;63269;53.330;-6.288;2023-03-01T08:06:33;1.38;;;0.30;;
74749;SDS011;63269;53.330;-6.288;2023-03-01T08:08:59;1.63;;;0.50;;
74749;SDS011;63269;53.330;-6.288;2023-03-01T08:11:25;2.38;;;0.30;;
74749;SDS011;63269;53.330;-6.288;2023-03-01T08:13:53;1.45;;;0.30;;
74749;SDS011;63269;53.330;-6.288;2023-03-01T08:16:18;0.73;;;0.22;;
74749;SDS011;63269;53.330;-6.288;2023-03-01T08:18:44;1.45;;;0.30;;
74749;SDS011;63269;53.330;-6.288;2023-03-01T08:21:10;3.25;;;0.32;;
74749;SDS011;63269;53.330;-6.288;2023-03-01T08:23:38;2.08;;;0.40;;
74749;SDS011;63269;53.330;-6.288;2023-03-01T08:26:11;0.75;;;0.40;;
74749;SDS011;63269;53.330;-6.288;2023-03-01T08:28:41;0.77;;;0.20;;
74749;SDS011;63269;53.330;-6.288;2023-03-01T08:33:42;1.38;;;0.30;;
74749;SDS011;63269;53.330;-6.288;2023-03-01T08:36:07;1.63;;;0.63;;
74749;SDS011;63269;53.330;-6.288;2023-03-01T08:38:33;2.05;;;0.35;;
74749;SDS011;63269;53.330;-6.288;2023-03-01T08:41:00;2.65;;;0.68;;
74749;SDS011;63269;53.330;-6.288;2023-03-01T08:43:26;0.80;;;0.38;;
74749;SDS011;63269;53.330;-6.288;2023-03-01T08:45:51;3.30;;;0.50;;
74749;SDS011;63269;53.330;-6.288;2023-03-01T08:48:17;1.30;;;0.40;;
74749;SDS011;63269;53.330;-6.288;2023-03-01T08:50:42;3.28;;;0.35;;
74749;SDS011;63269;53.330;-6.288;2023-03-01T08:53:08;1.58;;;0.50;;
74749;SDS011;63269;53.330;-6.288;2023-03-01T08:55:33;3.25;;;0.60;;
74749;SDS011;63269;53.330;-6.288;2023-03-01T08:57:58;1.40;;;0.40;;
74749;SDS011;63269;53.330;-6.288;2023-03-01T09:00:24;1.25;;;0.57;;
74749;SDS011;63269;53.330;-6.288;2023-03-01T09:02:50;3.92;;;0.40;;
74749;SDS011;63269;53.330;-6.288;2023-03-01T09:05:15;1.33;;;0.30;;
74749;SDS011;63269;53.330;-6.288;2023-03-01T09:07:40;2.97;;;0.45;;
74749;SDS011;63269;53.330;-6.288;2023-03-01T09:10:06;1.85;;;0.50;;
74749;SDS011;63269;53.330;-6.288;2023-03-01T09:12:32;1.10;;;0.50;;
74749;SDS011;63269;53.330;-6.288;2023-03-01T09:14:57;1.90;;;0.30;;
74749;SDS011;63269;53.330;-6.288;2023-03-01T09:17:22;2.55;;;0.52;;
74749;SDS011;63269;53.330;-6.288;2023-03-01T09:19:48;3.03;;;0.50;;
74749;SDS011;63269;53.330;-6.288;2023-03-01T09:22:14;3.28;;;0.70;;
74749;SDS011;63269;53.330;-6.288;2023-03-01T09:24:39;2.88;;;0.50;;
74749;SDS011;63269;53.330;-6.288;2023-03-01T09:27:05;4.72;;;1.65;;
74749;SDS011;63269;53.330;-6.288;2023-03-01T09:29:33;2.58;;;0.70;;
74749;SDS011;63269;53.330;-6.288;2023-03-01T09:32:02;2.63;;;0.63;;
74749;SDS011;63269;53.330;-6.288;2023-03-01T09:34:27;2.10;;;0.77;;
74749;SDS011;63269;53.330;-6.288;2023-03-01T09:36:53;2.10;;;0.57;;
74749;SDS011;63269;53.330;-6.288;2023-03-01T09:39:18;3.97;;;0.82;;
74749;SDS011;63269;53.330;-6.288;2023-03-01T09:44:36;2.20;;;0.75;;
74749;SDS011;63269;53.330;-6.288;2023-03-01T09:47:05;2.42;;;0.60;;
74749;SDS011;63269;53.330;-6.288;2023-03-01T09:49:39;3.35;;;1.08;;
74749;SDS011;63269;53.330;-6.288;2023-03-01T09:54:44;2.75;;;0.90;;
74749;SDS011;63269;53.330;-6.288;2023-03-01T09:57:17;6.50;;;1.02;;
74749;SDS011;63269;53.330;-6.288;2023-03-01T10:00:02;1.83;;;0.73;;
74749;SDS011;63269;53.330;-6.288;2023-03-01T10:02:45;5.05;;;0.90;;
74749;SDS011;63269;53.330;-6.288;2023-03-01T10:05:38;3.88;;;0.63;;
74749;SDS011;63269;53.330;-6.288;2023-03-01T10:10:37;2.30;;;0.57;;
74749;SDS011;63269;53.330;-6.288;2023-03-01T10:13:10;3.83;;;0.70;;
74749;SDS011;63269;53.330;-6.288;2023-03-01T10:15:53;2.28;;;0.47;;
74749;SDS011;63269;53.330;-6.288;2023-03-01T10:18:23;2.45;;;0.40;;
74749;SDS011;63269;53.330;-6.288;2023-03-01T10:20:57;2.13;;;0.60;;
74749;SDS011;63269;53.330;-6.288;2023-03-01T10:23:25;1.35;;;0.60;;
74749;SDS011;63269;53.330;-6.288;2023-03-01T10:25:57;2.10;;;0.65;;
74749;SDS011;63269;53.330;-6.288;2023-03-01T10:29:09;3.80;;;0.70;;
74749;SDS011;63269;53.330;-6.288;2023-03-01T10:31:47;1.38;;;0.73;;
74749;SDS011;63269;53.330;-6.288;2023-03-01T10:34:19;2.50;;;0.77;;
74749;SDS011;63269;53.330;-6.288;2023-03-01T10:36:52;2.38;;;0.68;;
74749;SDS011;63269;53.330;-6.288;2023-03-01T10:39:25;1.92;;;0.88;;
74749;SDS011;63269;53.330;-6.288;2023-03-01T10:44:36;2.08;;;0.60;;
74749;SDS011;63269;53.330;-6.288;2023-03-01T10:47:18;2.30;;;0.60;;
74749;SDS011;63269;53.330;-6.288;2023-03-01T10:49:53;2.90;;;1.05;;
74749;SDS011;63269;53.330;-6.288;2023-03-01T10:52:19;2.70;;;0.77;;
74749;SDS011;63269;53.330;-6.288;2023-03-01T10:54:57;3.42;;;0.50;;
74749;SDS011;63269;53.330;-6.288;2023-03-01T10:57:27;1.20;;;0.40;;
74749;SDS011;63269;53.330;-6.288;2023-03-01T11:02:48;1.55;;;0.40;;
74749;SDS011;63269;53.330;-6.288;2023-03-01T11:07:57;1.05;;;0.50;;
74749;SDS011;63269;53.330;-6.288;2023-03-01T11:10:28;1.80;;;0.50;;
74749;SDS011;63269;53.330;-6.288;2023-03-01T11:12:53;1.98;;;0.68;;
74749;SDS011;63269;53.330;-6.288;2023-03-01T11:15:30;1.60;;;0.50;;
74749;SDS011;63269;53.330;-6.288;2023-03-01T11:17:56;1.25;;;0.47;;
74749;SDS011;63269;53.330;-6.288;2023-03-01T11:23:33;1.77;;;0.40;;
74749;SDS011;63269;53.330;-6.288;2023-03-01T11:25:52;1.48;;;0.40;;
74749;SDS011;63269;53.330;-6.288;2023-03-01T11:28:21;1.55;;;0.50;;
74749;SDS011;63269;53.330;-6.288;2023-03-01T11:41:52;2.65;;;0.50;;
74749;SDS011;63269;53.330;-6.288;2023-03-01T11:44:31;1.75;;;0.50;;
74749;SDS011;63269;53.330;-6.288;2023-03-01T11:47:15;1.77;;;0.30;;
74749;SDS011;63269;53.330;-6.288;2023-03-01T11:57:53;1.33;;;0.52;;
74749;SDS011;63269;53.330;-6.288;2023-03-01T12:01:25;3.10;;;0.32;;
74749;SDS011;63269;53.330;-6.288;2023-03-01T12:12:30;1.63;;;0.30;;
74749;SDS011;63269;53.330;-6.288;2023-03-01T12:20:58;0.95;;;0.30;;
74749;SDS011;63269;53.330;-6.288;2023-03-01T12:50:41;2.75;;;0.40;;
74749;SDS011;63269;53.330;-6.288;2023-03-01T12:53:43;1.42;;;0.30;;
74749;SDS011;63269;53.330;-6.288;2023-03-01T12:56:05;1.90;;;0.30;;
74749;SDS011;63269;53.330;-6.288;2023-03-01T13:01:27;1.20;;;0.40;;
74749;SDS011;63269;53.330;-6.288;2023-03-01T13:20:17;1.00;;;0.30;;
74749;SDS011;63269;53.330;-6.288;2023-03-01T13:22:46;1.73;;;0.50;;
74749;SDS011;63269;53.330;-6.288;2023-03-01T13:25:19;1.83;;;0.40;;
74749;SDS011;63269;53.330;-6.288;2023-03-01T13:27:45;1.88;;;0.40;;
74749;SDS011;63269;53.330;-6.288;2023-03-01T13:35:52;1.05;;;0.30;;
74749;SDS011;63269;53.330;-6.288;2023-03-01T13:41:11;2.33;;;0.30;;
74749;SDS011;63269;53.330;-6.288;2023-03-01T13:43:38;0.82;;;0.40;;
74749;SDS011;63269;53.330;-6.288;2023-03-01T13:46:11;1.95;;;0.50;;
74749;SDS011;63269;53.330;-6.288;2023-03-01T13:48:45;1.90;;;0.60;;
74749;SDS011;63269;53.330;-6.288;2023-03-01T13:51:15;1.40;;;0.40;;
74749;SDS011;63269;53.330;-6.288;2023-03-01T13:53:45;1.35;;;0.60;;
74749;SDS011;63269;53.330;-6.288;2023-03-01T13:56:24;2.95;;;0.55;;
74749;SDS011;63269;53.330;-6.288;2023-03-01T13:58:59;1.10;;;0.50;;
74749;SDS011;63269;53.330;-6.288;2023-03-01T14:01:32;1.83;;;0.40;;
74749;SDS011;63269;53.330;-6.288;2023-03-01T14:03:59;1.13;;;0.50;;
74749;SDS011;63269;53.330;-6.288;2023-03-01T14:06:26;1.08;;;0.35;;
74749;SDS011;63269;53.330;-6.288;2023-03-01T14:09:05;1.25;;;0.45;;
74749;SDS011;63269;53.330;-6.288;2023-03-01T14:17:27;3.55;;;0.38;;
74749;SDS011;63269;53.330;-6.288;2023-03-01T14:20:00;1.10;;;0.28;;
74749;SDS011;63269;53.330;-6.288;2023-03-01T14:22:34;1.13;;;0.43;;
74749;SDS011;63269;53.330;-6.288;2023-03-01T14:25:34;0.57;;;0.28;;
74749;SDS011;63269;53.330;-6.288;2023-03-01T14:28:11;2.20;;;0.45;;
74749;SDS011;63269;53.330;-6.288;2023-03-01T14:30:46;0.80;;;0.30;;
74749;SDS011;63269;53.330;-6.288;2023-03-01T14:33:27;2.05;;;0.38;;
74749;SDS011;63269;53.330;-6.288;2023-03-01T14:38:28;1.05;;;0.43;;
74749;SDS011;63269;53.330;-6.288;2023-03-01T14:40:58;2.53;;;0.40;;
74749;SDS011;63269;53.330;-6.288;2023-03-01T14:43:26;1.20;;;0.30;;
74749;SDS011;63269;53.330;-6.288;2023-03-01T14:45:53;0.88;;;0.40;;
74749;SDS011;63269;53.330;-6.288;2023-03-01T14:48:19;1.23;;;0.40;;
74749;SDS011;63269;53.330;-6.288;2023-03-01T14:50:45;1.08;;;0.40;;
74749;SDS011;63269;53.330;-6.288;2023-03-01T14:53:21;0.73;;;0.32;;
74749;SDS011;63269;53.330;-6.288;2023-03-01T14:55:53;0.93;;;0.30;;
74749;SDS011;63269;53.330;-6.288;2023-03-01T14:58:21;1.27;;;0.40;;
74749;SDS011;63269;53.330;-6.288;2023-03-01T15:00:51;2.50;;;0.52;;
74749;SDS011;63269;53.330;-6.288;2023-03-01T15:06:02;1.27;;;0.40;;
74749;SDS011;63269;53.330;-6.288;2023-03-01T15:08:30;1.55;;;0.60;;
74749;SDS011;63269;53.330;-6.288;2023-03-01T15:11:03;1.25;;;0.30;;
74749;SDS011;63269;53.330;-6.288;2023-03-01T15:13:39;1.92;;;0.70;;
74749;SDS011;63269;53.330;-6.288;2023-03-01T15:16:06;1.00;;;0.20;;
74749;SDS011;63269;53.330;-6.288;2023-03-01T15:18:32;2.03;;;0.60;;
74749;SDS011;63269;53.330;-6.288;2023-03-01T15:21:08;1.52;;;0.32;;
74749;SDS011;63269;53.330;-6.288;2023-03-01T15:23:39;1.38;;;0.30;;
74749;SDS011;63269;53.330;-6.288;2023-03-01T15:26:05;4.57;;;0.93;;
74749;SDS011;63269;53.330;-6.288;2023-03-01T15:28:32;1.40;;;0.45;;
74749;SDS011;63269;53.330;-6.288;2023-03-01T15:33:45;1.58;;;0.52;;
74749;SDS011;63269;53.330;-6.288;2023-03-01T15:38:58;2.17;;;0.50;;
74749;SDS011;63269;53.330;-6.288;2023-03-01T15:41:26;2.92;;;0.50;;
74749;SDS011;63269;53.330;-6.288;2023-03-01T15:43:56;2.35;;;0.43;;
74749;SDS011;63269;53.330;-6.288;2023-03-01T15:46:32;1.83;;;0.47;;
74749;SDS011;63269;53.330;-6.288;2023-03-01T15:49:03;1.25;;;0.30;;
74749;SDS011;63269;53.330;-6.288;2023-03-01T15:51:35;3.05;;;0.60;;
74749;SDS011;63269;53.330;-6.288;2023-03-01T15:56:29;1.88;;;0.30;;
74749;SDS011;63269;53.330;-6.288;2023-03-01T15:58:58;1.90;;;0.40;;
74749;SDS011;63269;53.330;-6.288;2023-03-01T16:03:50;2.80;;;0.52;;
74749;SDS011;63269;53.330;-6.288;2023-03-01T16:06:16;1.88;;;0.60;;
74749;SDS011;63269;53.330;-6.288;2023-03-01T16:08:41;1.33;;;0.50;;
74749;SDS011;63269;53.330;-6.288;2023-03-01T16:11:25;1.70;;;0.45;;
74749;SDS011;63269;53.330;-6.288;2023-03-01T16:13:50;1.75;;;0.45;;
74749;SDS011;63269;53.330;-6.288;2023-03-01T16:16:16;2.33;;;0.47;;
74749;SDS011;63269;53.330;-6.288;2023-03-01T16:18:42;3.55;;;0.90;;
74749;SDS011;63269;53.330;-6.288;2023-03-01T16:21:27;2.10;;;0.93;;
74749;SDS011;63269;53.330;-6.288;2023-03-01T16:23:53;2.22;;;0.70;;
74749;SDS011;63269;53.330;-6.288;2023-03-01T16:26:18;1.20;;;0.43;;
74749;SDS011;63269;53.330;-6.288;2023-03-01T16:28:44;1.20;;;0.35;;
74749;SDS011;63269;53.330;-6.288;2023-03-01T16:31:10;1.73;;;0.45;;
74749;SDS011;63269;53.330;-6.288;2023-03-01T16:33:37;1.40;;;0.50;;
74749;SDS011;63269;53.330;-6.288;2023-03-01T16:36:06;3.35;;;0.55;;
74749;SDS011;63269;53.330;-6.288;2023-03-01T16:38:33;1.45;;;0.40;;
74749;SDS011;63269;53.330;-6.288;2023-03-01T16:40:59;1.23;;;0.52;;
74749;SDS011;63269;53.330;-6.288;2023-03-01T16:43:25;1.00;;;0.43;;
74749;SDS011;63269;53.330;-6.288;2023-03-01T16:45:51;3.17;;;0.50;;
74749;SDS011;63269;53.330;-6.288;2023-03-01T16:48:16;2.03;;;0.60;;
74749;SDS011;63269;53.330;-6.288;2023-03-01T16:50:42;1.50;;;0.40;;
74749;SDS011;63269;53.330;-6.288;2023-03-01T16:53:07;2.80;;;0.47;;
74749;SDS011;63269;53.330;-6.288;2023-03-01T16:55:33;1.42;;;0.40;;
74749;SDS011;63269;53.330;-6.288;2023-03-01T16:57:59;0.82;;;0.30;;
74749;SDS011;63269;53.330;-6.288;2023-03-01T17:00:24;1.20;;;0.30;;
74749;SDS011;63269;53.330;-6.288;2023-03-01T17:02:49;1.55;;;0.55;;